Time;durP1;ratioP1;P1;durP2;ratioP2;P2;SDS_P1;SDS_P2;PMS_P1;PMS_P2;Temp;Humidity;BMP_temperature;BMP_pressure;BME280_temperature;BME280_humidity;BME280_pressure;Samples;Min_cycle;Max_cycle;Signal;HPM_P1;HPM_P2
2021/12/09 00:01:04;;;;;;;61.00;24.70;;;;;;;-2.86;79.06;99178.74;228666;1193;141336;-65
2021/12/09 00:06:09;;;;;;;50.80;22.80;;;;;;;-2.81;79.10;99185.20;228687;1193;145057;-65
2021/12/09 00:11:12;;;;;;;41.20;18.70;;;;;;;-2.84;79.23;99182.38;228047;1193;139366;-68
2021/12/09 00:16:15;;;;;;;47.30;23.10;;;;;;;-2.88;79.14;99189.11;228663;1193;139054;-69
2021/12/09 00:21:18;;;;;;;48.50;21.80;;;;;;;-2.88;78.99;99178.65;228975;1193;140696;-66
2021/12/09 00:26:23;;;;;;;37.90;17.60;;;;;;;-2.88;79.22;99181.02;228007;1193;139318;-66
2021/12/09 00:31:26;;;;;;;41.00;17.90;;;;;;;-2.93;79.13;99186.13;228880;1193;140681;-71
2021/12/09 00:36:37;;;;;;;48.70;21.10;;;;;;;-2.99;78.88;99189.58;228090;1193;141571;-68
2021/12/09 00:41:41;;;;;;;27.70;12.80;;;;;;;-3.01;79.10;99199.70;228840;1193;140875;-70
2021/12/09 00:46:44;;;;;;;25.60;11.80;;;;;;;-3.08;78.97;99201.80;228689;1193;139936;-70
2021/12/09 00:51:46;;;;;;;34.50;15.00;;;;;;;-3.13;79.03;99200.27;228942;1193;140664;-67
2021/12/09 00:56:49;;;;;;;29.60;11.80;;;;;;;-3.14;79.03;99200.13;227944;1193;141727;-67
2021/12/09 01:01:54;;;;;;;33.00;17.70;;;;;;;-3.16;79.13;99185.98;228008;1193;141965;-69
2021/12/09 01:06:56;;;;;;;28.40;11.90;;;;;;;-3.12;79.61;99175.44;229573;1193;141337;-69
2021/12/09 01:11:59;;;;;;;31.00;13.00;;;;;;;-3.13;79.41;99169.80;230044;1193;140435;-70
2021/12/09 01:17:03;;;;;;;41.10;19.30;;;;;;;-3.11;79.27;99166.08;230052;1193;159962;-69
2021/12/09 01:22:06;;;;;;;38.10;20.10;;;;;;;-3.04;79.36;99160.20;229949;1193;140603;-67
2021/12/09 01:27:10;;;;;;;40.20;18.30;;;;;;;-3.02;79.31;99154.05;229285;1193;140109;-72
2021/12/09 01:32:13;;;;;;;47.60;17.20;;;;;;;-3.03;79.17;99147.88;229759;1193;142666;-69
2021/12/09 01:37:17;;;;;;;36.40;19.90;;;;;;;-2.95;79.12;99147.60;228832;1193;140428;-73
2021/12/09 01:42:20;;;;;;;30.80;13.60;;;;;;;-2.94;79.26;99153.34;228734;1193;141509;-68
2021/12/09 01:47:23;;;;;;;39.50;19.00;;;;;;;-3.01;79.05;99148.50;227989;1193;139822;-68
2021/12/09 01:52:28;;;;;;;31.70;15.40;;;;;;;-3.08;79.06;99144.19;228508;1193;141853;-72
2021/12/09 01:57:32;;;;;;;36.20;15.30;;;;;;;-3.11;78.98;99133.92;229241;1193;140528;-67
2021/12/09 02:02:35;;;;;;;46.70;20.70;;;;;;;-3.15;79.28;99122.19;227858;1193;139560;-65
2021/12/09 02:07:58;;;;;;;31.10;17.40;;;;;;;-3.13;79.42;99124.79;227983;1193;139605;-67
2021/12/09 02:13:01;;;;;;;22.70;12.40;;;;;;;-3.17;79.09;99126.97;228224;1193;140284;-67
2021/12/09 02:18:09;;;;;;;33.00;14.50;;;;;;;-3.24;79.17;99128.42;228152;1193;139615;-70
2021/12/09 02:23:16;;;;;;;21.90;10.10;;;;;;;-3.25;79.32;99129.40;229021;1193;140496;-70
2021/12/09 02:28:18;;;;;;;36.30;15.70;;;;;;;-3.23;79.40;99121.30;227567;1193;139444;-68
2021/12/09 02:33:20;;;;;;;24.70;11.40;;;;;;;-3.24;79.48;99112.27;228552;1187;141021;-64
2021/12/09 02:38:22;;;;;;;34.10;17.00;;;;;;;-3.25;79.52;99108.73;229036;1193;139087;-67
2021/12/09 02:43:28;;;;;;;32.20;16.40;;;;;;;-3.19;79.31;99105.63;228126;1193;141855;-70
2021/12/09 02:48:31;;;;;;;34.20;16.10;;;;;;;-3.16;79.36;99108.08;228879;1193;141445;-67
2021/12/09 02:53:35;;;;;;;33.80;18.10;;;;;;;-3.16;79.55;99112.25;228750;1193;140585;-67
2021/12/09 02:58:40;;;;;;;37.80;17.10;;;;;;;-3.14;79.58;99116.52;228187;1193;139310;-67
2021/12/09 03:03:51;;;;;;;42.80;15.90;;;;;;;-3.18;79.42;99120.75;229212;1193;140725;-67
2021/12/09 03:08:55;;;;;;;35.30;16.30;;;;;;;-3.21;79.04;99122.14;229748;1193;140969;-69
2021/12/09 03:14:01;;;;;;;27.70;13.40;;;;;;;-3.22;79.10;99123.90;229355;1193;139730;-69
2021/12/09 03:19:07;;;;;;;33.50;16.40;;;;;;;-3.25;79.18;99118.71;230167;1193;142515;-68
2021/12/09 03:24:13;;;;;;;41.30;20.20;;;;;;;-3.23;79.26;99120.50;230221;1193;140942;-67
2021/12/09 03:29:17;;;;;;;37.90;18.50;;;;;;;-3.18;78.98;99119.64;230222;1193;140181;-68
2021/12/09 03:34:21;;;;;;;39.30;15.90;;;;;;;-3.18;78.75;99131.23;228986;1193;140779;-68
2021/12/09 03:39:29;;;;;;;26.30;12.90;;;;;;;-3.21;78.67;99132.44;228714;1193;140462;-68
2021/12/09 03:44:32;;;;;;;38.40;23.10;;;;;;;-3.24;79.04;99140.61;228942;1193;141022;-68
2021/12/09 03:49:37;;;;;;;32.30;15.60;;;;;;;-3.25;78.81;99143.05;229674;1193;140055;-67
2021/12/09 03:54:42;;;;;;;31.80;16.20;;;;;;;-3.26;78.70;99134.34;228016;1193;140301;-67
2021/12/09 03:59:46;;;;;;;31.40;16.60;;;;;;;-3.30;79.04;99125.94;229298;1193;140081;-67
2021/12/09 04:04:50;;;;;;;39.80;17.00;;;;;;;-3.34;78.93;99126.38;228203;1193;140125;-68
2021/12/09 04:09:54;;;;;;;34.10;16.50;;;;;;;-3.38;78.91;99130.43;228093;1193;141049;-67
2021/12/09 04:14:58;;;;;;;41.30;20.00;;;;;;;-3.49;78.77;99127.21;229514;1193;139695;-67
2021/12/09 04:20:01;;;;;;;35.80;15.70;;;;;;;-3.51;79.24;99114.96;228142;1193;140170;-67
2021/12/09 04:25:05;;;;;;;32.50;15.80;;;;;;;-3.47;79.16;99108.10;228275;1193;140178;-67
2021/12/09 04:30:09;;;;;;;35.60;16.70;;;;;;;-3.52;79.00;99107.41;228631;1193;143170;-67
2021/12/09 04:35:12;;;;;;;28.90;13.10;;;;;;;-3.56;79.41;99106.65;227896;1193;140647;-67
2021/12/09 04:40:16;;;;;;;45.70;17.50;;;;;;;-3.56;79.31;99108.01;227881;1193;140243;-67
2021/12/09 04:45:20;;;;;;;37.10;20.00;;;;;;;-3.55;79.46;99118.14;228305;1193;141858;-67
2021/12/09 04:50:24;;;;;;;40.10;18.10;;;;;;;-3.57;79.39;99125.96;227861;1193;140178;-67
2021/12/09 04:55:28;;;;;;;45.00;20.90;;;;;;;-3.61;79.57;99116.73;228573;1193;140097;-67
2021/12/09 05:00:32;;;;;;;42.00;18.70;;;;;;;-3.58;79.64;99113.09;228867;1193;141329;-66
2021/12/09 05:05:42;;;;;;;39.30;19.20;;;;;;;-3.51;79.74;99105.06;229036;1193;141166;-67
2021/12/09 05:15:55;;;;;;;37.60;17.40;;;;;;;-3.50;79.56;99097.58;228983;1193;139726;-67
2021/12/09 05:20:59;;;;;;;40.30;20.30;;;;;;;-3.45;79.57;99096.45;229553;1193;142608;-68
2021/12/09 05:26:03;;;;;;;37.40;18.70;;;;;;;-3.42;79.75;99095.35;229856;1193;141304;-67
2021/12/09 05:36:28;;;;;;;38.10;20.50;;;;;;;-3.38;79.62;99132.89;229807;1193;209075;-67
2021/12/09 05:41:33;;;;;;;26.10;13.90;;;;;;;-3.33;79.44;99135.44;228978;1193;141656;-67
2021/12/09 05:46:39;;;;;;;29.00;12.70;;;;;;;-3.33;79.48;99126.94;228691;1193;140186;-66
2021/12/09 05:51:46;;;;;;;48.50;18.40;;;;;;;-3.39;79.41;99110.34;229429;1193;139929;-67
2021/12/09 05:56:50;;;;;;;39.40;20.60;;;;;;;-3.34;79.65;99101.01;229025;1193;140649;-66
2021/12/09 06:01:53;;;;;;;43.20;20.10;;;;;;;-3.31;79.71;99098.27;228440;1193;139169;-67
2021/12/09 06:06:56;;;;;;;43.80;22.50;;;;;;;-3.34;79.64;99127.68;229004;1193;139466;-68
2021/12/09 06:11:59;;;;;;;53.30;21.60;;;;;;;-3.28;79.63;99130.86;229037;1193;140365;-67
2021/12/09 06:17:03;;;;;;;37.60;17.00;;;;;;;-3.24;79.73;99150.64;228297;1193;139167;-68
2021/12/09 06:22:06;;;;;;;38.40;18.40;;;;;;;-3.26;79.62;99152.04;228397;1193;140008;-67
2021/12/09 06:27:10;;;;;;;47.40;21.90;;;;;;;-3.27;79.41;99169.52;228723;1193;139459;-67
2021/12/09 06:32:14;;;;;;;46.30;21.70;;;;;;;-3.26;79.47;99163.73;228035;1193;141330;-71
2021/12/09 06:37:17;;;;;;;34.80;20.50;;;;;;;-3.28;79.54;99172.46;228807;1193;141652;-66
2021/12/09 06:42:20;;;;;;;41.70;17.90;;;;;;;-3.28;79.85;99175.23;228296;1193;141238;-67
2021/12/09 06:47:23;;;;;;;45.30;18.70;;;;;;;-3.29;79.55;99167.14;228314;1193;143665;-67
2021/12/09 06:52:26;;;;;;;38.30;17.20;;;;;;;-3.25;79.82;99160.15;228093;1193;143360;-67
2021/12/09 06:57:29;;;;;;;43.60;20.00;;;;;;;-3.22;79.72;99151.66;228863;1193;141399;-65
2021/12/09 07:02:33;;;;;;;54.90;25.10;;;;;;;-3.20;79.87;99153.98;228899;1193;141686;-66
2021/12/09 07:07:38;;;;;;;54.30;25.00;;;;;;;-3.19;79.80;99155.19;229038;1193;142591;-66
2021/12/09 07:12:45;;;;;;;43.90;24.80;;;;;;;-3.12;79.65;99153.18;228936;1193;140663;-67
2021/12/09 07:17:48;;;;;;;44.80;22.80;;;;;;;-3.08;79.88;99146.11;230024;1193;139735;-66
2021/12/09 07:22:51;;;;;;;44.70;20.90;;;;;;;-3.11;79.64;99133.98;230246;1193;139173;-66
2021/12/09 07:27:55;;;;;;;40.50;18.70;;;;;;;-3.04;79.74;99139.19;230430;1193;140823;-66
2021/12/09 07:32:58;;;;;;;41.50;21.00;;;;;;;-3.00;79.42;99154.58;230529;1193;140282;-69
2021/12/09 07:38:04;;;;;;;45.40;20.50;;;;;;;-3.01;79.55;99163.00;230390;1193;140511;-68
2021/12/09 07:43:08;;;;;;;48.10;23.00;;;;;;;-2.96;79.29;99153.27;229223;1193;141574;-66
2021/12/09 07:48:11;;;;;;;41.30;18.60;;;;;;;-2.89;79.22;99156.18;228817;1195;152941;-66
2021/12/09 07:53:17;;;;;;;28.20;16.70;;;;;;;-2.86;79.35;99158.77;229590;1193;141591;-66
2021/12/09 07:58:20;;;;;;;48.30;22.90;;;;;;;-2.86;79.30;99158.80;229042;1193;140056;-66
2021/12/09 08:03:24;;;;;;;42.00;19.20;;;;;;;-2.79;79.11;99172.43;228461;1193;141154;-66
2021/12/09 08:08:33;;;;;;;37.40;18.40;;;;;;;-2.72;79.31;99187.50;228908;1193;141548;-64
2021/12/09 08:13:36;;;;;;;47.20;20.50;;;;;;;-2.68;79.46;99179.32;228218;1193;141067;-66
2021/12/09 08:18:55;;;;;;;35.70;15.90;;;;;;;-2.64;79.33;99168.92;228693;1193;141974;-67
2021/12/09 08:23:59;;;;;;;41.70;21.60;;;;;;;-2.62;79.29;99167.69;228462;1193;142240;-66
2021/12/09 08:29:04;;;;;;;27.30;14.90;;;;;;;-2.58;79.00;99163.80;228779;1193;140423;-66
2021/12/09 08:34:07;;;;;;;39.70;16.30;;;;;;;-2.63;79.26;99170.58;229061;1193;140953;-66
2021/12/09 08:39:25;;;;;;;41.10;18.50;;;;;;;-2.60;79.24;99161.88;228391;1193;140208;-66
2021/12/09 08:44:28;;;;;;;37.30;19.30;;;;;;;-2.53;79.09;99165.16;229410;1193;141414;-67
2021/12/09 08:49:32;;;;;;;41.70;20.20;;;;;;;-2.51;79.22;99183.38;229228;1193;140696;-66
2021/12/09 08:54:36;;;;;;;40.10;19.50;;;;;;;-2.44;79.43;99179.63;228532;1193;232232;-66
2021/12/09 08:59:39;;;;;;;49.40;22.90;;;;;;;-2.34;79.25;99184.12;229288;1193;139475;-67
2021/12/09 09:04:42;;;;;;;43.00;21.10;;;;;;;-2.21;79.14;99175.06;228428;1193;141945;-66
2021/12/09 09:09:49;;;;;;;39.60;16.80;;;;;;;-2.13;79.13;99183.73;229345;1193;140717;-67
2021/12/09 09:14:53;;;;;;;56.90;22.20;;;;;;;-2.11;78.98;99187.66;230058;1193;139426;-67
2021/12/09 09:19:58;;;;;;;37.40;18.30;;;;;;;-1.99;79.03;99190.77;230557;1193;144058;-69
2021/12/09 09:25:03;;;;;;;35.50;17.40;;;;;;;-1.92;78.76;99191.05;230620;1193;140612;-68
2021/12/09 09:30:06;;;;;;;33.90;15.60;;;;;;;-1.88;78.80;99171.41;230544;1193;140295;-68
2021/12/09 09:35:11;;;;;;;46.10;23.10;;;;;;;-1.85;78.72;99168.27;230482;1193;142750;-68
2021/12/09 09:40:27;;;;;;;49.60;24.30;;;;;;;-1.79;78.53;99174.27;230026;1193;141274;-67
2021/12/09 09:45:34;;;;;;;41.60;19.80;;;;;;;-1.76;78.85;99174.59;229178;1193;140686;-67
2021/12/09 09:50:38;;;;;;;32.20;15.70;;;;;;;-1.75;78.89;99173.58;229551;1193;140461;-67
2021/12/09 09:55:44;;;;;;;55.30;23.10;;;;;;;-1.73;78.74;99173.85;227803;1193;139713;-66
2021/12/09 10:00:48;;;;;;;41.40;20.40;;;;;;;-1.65;78.78;99159.81;229017;1193;143675;-67
2021/12/09 10:05:52;;;;;;;45.00;19.30;;;;;;;-1.60;78.66;99159.45;228757;1193;139493;-67
2021/12/09 10:10:57;;;;;;;47.10;18.70;;;;;;;-1.58;78.71;99145.61;229012;1193;139611;-67
2021/12/09 10:16:17;;;;;;;51.90;20.20;;;;;;;-1.52;78.95;99145.39;228252;1193;141739;-66
2021/12/09 10:21:27;;;;;;;46.00;21.90;;;;;;;-1.44;78.59;99152.59;227969;1193;140609;-66
2021/12/09 10:26:41;;;;;;;38.00;20.30;;;;;;;-1.44;78.57;99144.58;228364;1193;140126;-67
2021/12/09 10:31:59;;;;;;;49.00;20.00;;;;;;;-1.43;78.70;99133.75;228200;1193;139797;-67
2021/12/09 10:37:04;;;;;;;55.60;21.90;;;;;;;-1.40;78.56;99132.20;228437;1193;141214;-67
2021/12/09 10:42:16;;;;;;;51.30;23.40;;;;;;;-1.41;78.32;99130.80;228542;1193;140934;-67
2021/12/09 10:53:32;;;;;;;40.90;22.40;;;;;;;-1.30;78.63;99127.52;228970;1193;139599;-66
2021/12/09 10:58:39;;;;;;;60.60;25.90;;;;;;;-1.16;78.38;99116.71;229556;1193;139130;-66
2021/12/09 11:03:54;;;;;;;54.80;24.00;;;;;;;-0.91;78.44;99096.60;229423;1193;140271;-67
2021/12/09 11:09:05;;;;;;;48.00;22.00;;;;;;;-0.63;78.55;99093.93;229480;1193;139683;-66
2021/12/09 11:14:17;;;;;;;44.90;23.90;;;;;;;-0.43;78.42;99088.59;229283;1193;140468;-67
2021/12/09 11:19:48;;;;;;;56.20;24.50;;;;;;;-0.29;78.20;99082.28;230561;1193;139805;-69
2021/12/09 11:24:57;;;;;;;46.40;22.40;;;;;;;-0.32;77.52;99072.83;229892;1193;141356;-67
2021/12/09 11:30:12;;;;;;;43.00;23.30;;;;;;;-0.31;77.61;99068.52;230311;1193;139820;-69
2021/12/09 11:35:30;;;;;;;39.70;18.90;;;;;;;-0.35;77.68;99077.15;230303;1193;139446;-69
2021/12/09 11:40:45;;;;;;;46.50;19.90;;;;;;;-0.39;77.34;99075.16;230465;1193;141313;-70
2021/12/09 11:45:59;;;;;;;47.00;25.40;;;;;;;-0.34;77.30;99071.05;229486;1193;140079;-67
2021/12/09 11:51:04;;;;;;;51.20;25.30;;;;;;;-0.30;77.46;99057.73;229288;1193;139137;-67
2021/12/09 11:56:20;;;;;;;37.10;18.80;;;;;;;-0.25;77.09;99055.26;228668;1193;139438;-67
2021/12/09 12:07:18;;;;;;;58.20;25.70;;;;;;;-0.27;77.02;99055.48;228055;1193;139917;-67
2021/12/09 12:29:37;;;;;;;48.90;25.10;;;;;;;-0.47;77.58;98993.92;228543;1193;142453;-67
2021/12/09 12:40:17;;;;;;;48.40;26.00;;;;;;;-0.40;77.79;99000.90;230021;1193;139217;-67
2021/12/09 12:51:43;;;;;;;54.20;23.70;;;;;;;-0.49;77.13;99014.23;227894;1193;140487;-66
2021/12/09 12:56:55;;;;;;;54.00;28.10;;;;;;;-0.55;76.98;99033.27;227737;1186;140805;-66
2021/12/09 13:02:23;;;;;;;70.10;26.00;;;;;;;-0.66;77.26;99027.95;228034;1193;142449;-67
2021/12/09 13:12:45;;;;;;;47.40;22.40;;;;;;;-0.73;77.46;99039.20;227760;1193;140672;-66
2021/12/09 13:23:28;;;;;;;52.30;24.40;;;;;;;-0.66;77.53;99051.50;230116;1193;140180;-67
2021/12/09 13:28:50;;;;;;;51.70;24.70;;;;;;;-0.65;77.78;99052.77;230183;1193;140270;-67
2021/12/09 13:34:07;;;;;;;48.30;23.40;;;;;;;-0.64;77.55;99049.91;230226;1193;141579;-70
2021/12/09 13:50:21;;;;;;;50.00;23.40;;;;;;;-0.70;77.21;99055.14;228776;1193;141700;-66
2021/12/09 13:55:29;;;;;;;49.60;25.50;;;;;;;-0.75;77.42;99055.91;228570;1193;141149;-65
2021/12/09 14:00:39;;;;;;;50.70;26.20;;;;;;;-0.83;77.74;99048.77;229415;1193;142788;-67
2021/12/09 14:06:09;;;;;;;62.10;27.00;;;;;;;-0.84;77.71;99044.77;228485;1193;140245;-66
2021/12/09 14:11:31;;;;;;;56.30;27.90;;;;;;;-0.89;77.65;99039.38;227719;1193;138940;-66
2021/12/09 14:17:03;;;;;;;48.20;24.50;;;;;;;-0.92;77.50;99028.60;228686;1193;140665;-65
2021/12/09 14:22:08;;;;;;;60.80;31.20;;;;;;;-1.04;77.53;99042.83;228432;1193;140908;-68
2021/12/09 14:27:16;;;;;;;55.80;24.10;;;;;;;-1.11;77.65;99041.94;228443;1193;140356;-66
2021/12/09 14:32:22;;;;;;;48.90;22.80;;;;;;;-1.14;77.49;99054.77;229132;1193;141625;-66
2021/12/09 14:37:27;;;;;;;49.40;26.40;;;;;;;-1.19;77.51;99053.27;228965;1193;152129;-68
2021/12/09 14:42:34;;;;;;;52.20;23.10;;;;;;;-1.25;77.78;99039.56;228527;1193;139325;-67
2021/12/09 14:47:39;;;;;;;;;;;;;;;-1.31;77.76;99032.93;228719;1193;140305;-67
2021/12/09 14:52:48;;;;;;;66.20;28.20;;;;;;;-1.38;78.01;99026.94;229333;1186;126223;-66
2021/12/09 14:58:03;;;;;;;50.90;25.00;;;;;;;-1.41;77.75;99029.53;227886;1195;141548;-65
2021/12/09 15:03:10;;;;;;;55.70;25.70;;;;;;;-1.40;78.03;99014.95;227721;1193;140821;-66
2021/12/09 15:08:20;;;;;;;58.10;25.30;;;;;;;-1.43;78.30;99013.70;228759;1193;142711;-67
2021/12/09 15:13:27;;;;;;;68.10;31.40;;;;;;;-1.45;78.27;99006.91;229408;1193;140733;-65
2021/12/09 15:19:10;;;;;;;65.30;26.60;;;;;;;-1.49;78.24;99007.44;228880;1193;140435;-66
2021/12/09 15:24:13;;;;;;;55.40;27.50;;;;;;;-1.45;78.11;99006.50;228611;1193;140552;-65
2021/12/09 15:29:22;;;;;;;63.40;31.70;;;;;;;-1.43;78.17;98998.70;230142;1193;141647;-70
2021/12/09 15:34:26;;;;;;;54.30;25.80;;;;;;;-1.46;78.27;98997.29;229398;1193;140520;-69
2021/12/09 15:39:38;;;;;;;48.10;23.50;;;;;;;-1.47;78.01;98996.19;229402;1193;142685;-70
2021/12/09 15:44:46;;;;;;;62.00;29.20;;;;;;;-1.44;78.00;98992.38;229415;1193;141965;-68
2021/12/09 15:49:57;;;;;;;54.60;27.00;;;;;;;-1.42;78.09;98992.00;227800;1193;140292;-67
2021/12/09 15:55:22;;;;;;;51.30;28.60;;;;;;;-1.47;78.31;98996.54;229287;1193;140453;-67
2021/12/09 16:00:29;;;;;;;44.90;22.10;;;;;;;-1.45;78.14;98993.06;228873;1193;141532;-66
2021/12/09 16:05:33;;;;;;;47.50;24.30;;;;;;;-1.46;78.25;98995.55;229994;1193;140363;-70
2021/12/09 16:10:36;;;;;;;53.90;27.90;;;;;;;-1.49;78.53;98991.10;228761;1193;139796;-67
2021/12/09 16:15:53;;;;;;;43.30;19.00;;;;;;;-1.51;78.43;98987.70;227760;1193;140158;-68
2021/12/09 16:21:06;;;;;;;51.80;25.00;;;;;;;-1.57;78.27;98980.18;228262;1193;139923;-69
2021/12/09 16:26:11;;;;;;;49.60;23.30;;;;;;;-1.64;78.23;98974.64;227858;1193;141580;-68
2021/12/09 16:31:13;;;;;;;48.40;24.90;;;;;;;-1.64;78.68;98983.30;228289;1193;140929;-68
2021/12/09 16:36:16;;;;;;;47.10;21.30;;;;;;;-1.63;78.74;98974.97;228018;1195;140657;-67
2021/12/09 16:41:20;;;;;;;46.50;21.60;;;;;;;-1.68;78.55;98965.55;227979;1186;141047;-67
2021/12/09 16:46:24;;;;;;;50.90;24.60;;;;;;;-1.69;78.64;98958.73;227932;1193;141842;-66
2021/12/09 16:51:27;;;;;;;41.80;18.60;;;;;;;-1.71;78.88;98955.73;227879;1193;140284;-67
2021/12/09 17:01:42;;;;;;;50.10;24.90;;;;;;;-1.80;79.20;98953.52;228607;1195;139436;-67
2021/12/09 17:06:47;;;;;;;51.00;24.30;;;;;;;-1.74;78.87;98954.15;229319;1188;139988;-67
2021/12/09 17:11:49;;;;;;;48.30;25.70;;;;;;;-1.70;79.26;98959.48;228877;1193;141901;-67
2021/12/09 17:16:54;;;;;;;40.70;23.10;;;;;;;-1.67;79.24;98969.11;229254;1193;139497;-68
2021/12/09 17:21:59;;;;;;;50.20;23.80;;;;;;;-1.65;79.39;98972.00;229210;1193;140614;-67
2021/12/09 17:27:03;;;;;;;54.30;26.00;;;;;;;-1.63;79.28;98971.79;228441;1187;140255;-67
2021/12/09 17:32:06;;;;;;;46.60;19.80;;;;;;;-1.61;79.12;98958.03;230339;1193;139623;-71
2021/12/09 17:37:10;;;;;;;47.60;22.00;;;;;;;-1.59;79.11;98967.00;230471;1193;140285;-72
2021/12/09 17:42:12;;;;;;;58.00;25.40;;;;;;;-1.56;79.14;98961.45;230236;1193;140828;-74
2021/12/09 17:47:18;;;;;;;38.00;18.90;;;;;;;-1.55;79.43;98959.19;230298;1193;140706;-67
2021/12/09 17:52:36;;;;;;;52.10;24.30;;;;;;;-1.54;79.05;98955.39;229750;1193;139591;-67
2021/12/09 17:57:43;;;;;;;51.50;23.50;;;;;;;-1.49;79.30;98948.60;228898;1193;141525;-71
2021/12/09 18:02:49;;;;;;;44.40;25.00;;;;;;;-1.47;79.21;98952.46;228799;1193;140556;-66
2021/12/09 18:08:04;;;;;;;43.80;23.40;;;;;;;-1.47;79.32;98947.30;228504;1193;139197;-67
2021/12/09 18:13:09;;;;;;;46.50;20.60;;;;;;;-1.50;79.33;98946.25;227919;1193;139888;-65
2021/12/09 18:18:13;;;;;;;45.20;23.00;;;;;;;-1.45;79.43;98948.89;228619;1193;140995;-65
2021/12/09 18:23:17;;;;;;;48.40;25.40;;;;;;;-1.40;79.69;98948.33;228256;1193;139194;-65
2021/12/09 18:28:22;;;;;;;59.90;25.50;;;;;;;-1.37;79.65;98962.85;228511;1193;139785;-65
2021/12/09 18:33:26;;;;;;;60.40;27.60;;;;;;;-1.42;79.46;98961.61;228869;1193;139977;-66
2021/12/09 18:38:29;;;;;;;43.70;22.80;;;;;;;-1.38;79.33;98962.10;228710;1193;140038;-66
2021/12/09 18:43:54;;;;;;;47.90;28.40;;;;;;;-1.36;79.64;98958.33;228589;1193;140820;-69
2021/12/09 18:48:58;;;;;;;49.80;24.70;;;;;;;-1.39;79.50;98957.95;228289;1193;140936;-70
2021/12/09 18:54:09;;;;;;;51.70;25.90;;;;;;;-1.40;79.53;98960.41;229002;1193;139372;-71
2021/12/09 18:59:13;;;;;;;54.80;23.90;;;;;;;-1.41;79.64;98955.42;229361;1193;139021;-70
2021/12/09 19:04:18;;;;;;;53.10;26.50;;;;;;;-1.37;79.23;98968.23;229115;1193;140832;-69
2021/12/09 19:09:21;;;;;;;49.80;25.50;;;;;;;-1.36;79.44;98963.95;228859;1193;139621;-68
2021/12/09 19:14:28;;;;;;;47.90;23.50;;;;;;;-1.37;79.38;98940.66;229375;1193;139510;-70
2021/12/09 19:19:32;;;;;;;62.70;30.60;;;;;;;-1.35;79.78;98930.22;229695;1193;139062;-71
2021/12/09 19:24:35;;;;;;;66.60;30.50;;;;;;;-1.33;79.65;98920.07;230411;1193;139000;-69
2021/12/09 19:29:43;;;;;;;60.50;26.00;;;;;;;-1.27;79.52;98901.95;230362;1193;140148;-72
2021/12/09 19:34:47;;;;;;;60.40;29.80;;;;;;;-1.20;79.51;98890.43;229914;1193;142550;-70
2021/12/09 19:39:49;;;;;;;70.90;31.20;;;;;;;-1.17;79.72;98897.60;230258;1193;139535;-70
2021/12/09 19:44:53;;;;;;;63.50;32.60;;;;;;;-1.16;79.85;98887.81;229699;1193;140625;-67
2021/12/09 19:49:56;;;;;;;59.90;28.10;;;;;;;-1.15;79.64;98879.92;229345;1193;139865;-68
2021/12/09 19:54:59;;;;;;;60.60;28.70;;;;;;;-1.12;79.35;98875.48;228118;1193;140780;-69
2021/12/09 20:00:07;;;;;;;63.50;31.50;;;;;;;-1.07;79.58;98867.09;228042;1193;139904;-66
2021/12/09 20:05:12;;;;;;;52.40;26.20;;;;;;;-1.09;79.75;98860.34;229319;1191;141046;-68
2021/12/09 20:10:17;;;;;;;65.30;30.00;;;;;;;-1.14;79.55;98855.86;228750;1193;160507;-67
2021/12/09 20:15:23;;;;;;;56.50;24.70;;;;;;;-1.18;79.57;98856.52;229201;1193;139723;-68
2021/12/09 20:20:25;;;;;;;55.20;28.70;;;;;;;-1.17;79.59;98855.72;228822;1193;140375;-68
2021/12/09 20:25:49;;;;;;;66.20;31.00;;;;;;;-1.11;79.85;98851.30;228178;1193;140918;-68
2021/12/09 20:30:51;;;;;;;59.10;26.90;;;;;;;-1.05;80.06;98854.58;228113;1193;140693;-71
2021/12/09 20:35:58;;;;;;;67.70;32.20;;;;;;;-1.11;79.84;98854.09;229114;1193;139961;-71
2021/12/09 20:41:02;;;;;;;64.50;30.70;;;;;;;-1.19;79.90;98851.99;228690;1193;140773;-67
2021/12/09 20:46:07;;;;;;;63.50;28.60;;;;;;;-1.23;79.90;98854.55;228050;1193;140080;-65
2021/12/09 20:51:12;;;;;;;84.10;33.80;;;;;;;-1.19;80.15;98845.98;227920;1193;140997;-71
2021/12/09 20:56:15;;;;;;;87.80;45.40;;;;;;;-1.15;80.19;98833.98;228724;1193;141590;-67
2021/12/09 21:01:20;;;;;;;86.90;41.90;;;;;;;-1.10;80.63;98830.32;228530;1193;140533;-69
2021/12/09 21:06:23;;;;;;;79.50;33.70;;;;;;;-1.12;80.36;98821.84;228092;1193;141176;-72
2021/12/09 21:11:29;;;;;;;72.20;31.70;;;;;;;-1.16;80.67;98810.48;229151;1193;140093;-73
2021/12/09 21:16:32;;;;;;;72.60;31.30;;;;;;;-1.13;80.45;98808.52;229507;1193;161050;-72
2021/12/09 21:21:35;;;;;;;53.40;25.30;;;;;;;-1.10;80.52;98807.79;229049;1193;140539;-71
2021/12/09 21:26:39;;;;;;;49.20;26.90;;;;;;;-1.11;80.53;98811.03;229480;1193;140055;-69
2021/12/09 21:31:42;;;;;;;58.30;28.60;;;;;;;-1.13;80.75;98811.64;228817;1193;139303;-70
2021/12/09 21:36:50;;;;;;;48.60;23.60;;;;;;;-1.13;80.58;98809.68;230021;1193;139798;-71
2021/12/09 21:41:53;;;;;;;49.90;27.20;;;;;;;-1.09;80.46;98799.60;230255;1193;140716;-74
2021/12/09 21:46:58;;;;;;;61.70;28.10;;;;;;;-1.04;80.32;98798.33;229418;1193;140073;-72
2021/12/09 21:52:02;;;;;;;53.00;25.00;;;;;;;-1.00;80.53;98804.36;230324;1193;140330;-69
2021/12/09 21:57:05;;;;;;;56.50;27.40;;;;;;;-1.01;80.52;98804.28;229349;1193;140076;-69
2021/12/09 22:02:08;;;;;;;69.50;28.10;;;;;;;-1.03;80.30;98803.81;229698;1193;139664;-68
2021/12/09 22:07:11;;;;;;;63.80;30.00;;;;;;;-1.01;80.44;98791.73;228208;1193;140004;-70
2021/12/09 22:12:17;;;;;;;63.60;29.40;;;;;;;-0.95;80.38;98775.58;228884;1193;139996;-66
2021/12/09 22:17:25;;;;;;;64.90;29.00;;;;;;;-0.90;80.70;98778.10;229115;1193;158409;-67
2021/12/09 22:22:51;;;;;;;70.50;31.50;;;;;;;-0.90;80.70;98790.45;228748;1193;139902;-66
2021/12/09 22:27:56;;;;;;;54.20;26.80;;;;;;;-0.93;80.41;98785.87;229028;1193;140209;-67
2021/12/09 22:33:00;;;;;;;56.10;28.20;;;;;;;-0.93;80.23;98784.94;229040;1181;140842;-67
2021/12/09 22:38:03;;;;;;;40.40;22.80;;;;;;;-0.97;80.25;98782.60;228081;1193;140521;-64
2021/12/09 22:43:06;;;;;;;34.30;18.90;;;;;;;-1.02;80.27;98776.73;228733;1193;139667;-69
2021/12/09 22:48:09;;;;;;;44.70;22.40;;;;;;;-1.13;80.46;98773.23;228155;1193;139614;-66
2021/12/09 22:53:13;;;;;;;38.70;22.40;;;;;;;-1.14;80.39;98766.05;228566;1193;140280;-67
2021/12/09 22:58:16;;;;;;;41.90;19.80;;;;;;;-1.07;80.82;98744.85;229184;1193;140879;-66
2021/12/09 23:03:22;;;;;;;42.40;21.70;;;;;;;-1.02;80.89;98727.36;227948;1193;153485;-65
2021/12/09 23:08:27;;;;;;;35.00;20.60;;;;;;;-0.99;80.68;98733.67;228628;1193;139206;-67
2021/12/09 23:13:30;;;;;;;35.50;18.20;;;;;;;-1.06;80.97;98739.64;227670;1193;141656;-66
2021/12/09 23:18:36;;;;;;;40.90;20.60;;;;;;;-1.12;80.64;98744.79;228434;1193;139771;-69
2021/12/09 23:23:39;;;;;;;39.60;20.80;;;;;;;-1.14;80.73;98754.98;228334;1193;139769;-67
2021/12/09 23:28:51;;;;;;;35.40;20.80;;;;;;;-1.14;80.72;98742.36;228270;1193;139436;-66
2021/12/09 23:34:01;;;;;;;39.90;20.90;;;;;;;-1.08;81.17;98722.34;229274;1194;140523;-66
2021/12/09 23:39:09;;;;;;;37.80;20.90;;;;;;;-1.05;81.23;98711.45;229996;1193;140454;-68
2021/12/09 23:44:16;;;;;;;40.50;18.70;;;;;;;-1.01;81.14;98705.73;230359;1191;139705;-68
2021/12/09 23:49:20;;;;;;;36.00;18.70;;;;;;;-0.96;80.82;98707.59;230048;1193;140864;-68
2021/12/09 23:54:29;;;;;;;38.70;22.30;;;;;;;-0.94;80.78;98709.63;228453;1193;140027;-66
2021/12/09 23:59:35;;;;;;;45.20;22.90;;;;;;;-0.93;80.93;98705.66;230301;1193;139540;-68
